sensor_id;sensor_type;location;lat;lon;timestamp;P1;durP1;ratioP1;P2;durP2;ratioP2
44197;SDS011;30157;55.512;37.764;2023-07-20T00:00:50;2.22;;;1.30;;
44197;SDS011;30157;55.512;37.764;2023-07-20T00:03:19;2.13;;;1.60;;
44197;SDS011;30157;55.512;37.764;2023-07-20T00:05:49;5.20;;;2.20;;
44197;SDS011;30157;55.512;37.764;2023-07-20T00:08:15;4.93;;;2.15;;
44197;SDS011;30157;55.512;37.764;2023-07-20T00:10:42;2.38;;;1.58;;
44197;SDS011;30157;55.512;37.764;2023-07-20T00:13:09;2.30;;;1.35;;
44197;SDS011;30157;55.512;37.764;2023-07-20T00:15:36;2.45;;;1.40;;
44197;SDS011;30157;55.512;37.764;2023-07-20T00:18:03;2.40;;;1.50;;
44197;SDS011;30157;55.512;37.764;2023-07-20T00:20:30;3.22;;;1.80;;
44197;SDS011;30157;55.512;37.764;2023-07-20T00:22:56;2.92;;;1.50;;
44197;SDS011;30157;55.512;37.764;2023-07-20T00:25:23;2.47;;;1.20;;
44197;SDS011;30157;55.512;37.764;2023-07-20T00:27:49;3.25;;;1.48;;
44197;SDS011;30157;55.512;37.764;2023-07-20T00:30:15;2.85;;;1.50;;
44197;SDS011;30157;55.512;37.764;2023-07-20T00:32:42;2.90;;;1.48;;
44197;SDS011;30157;55.512;37.764;2023-07-20T00:35:09;3.35;;;1.50;;
44197;SDS011;30157;55.512;37.764;2023-07-20T00:37:36;2.10;;;1.40;;
44197;SDS011;30157;55.512;37.764;2023-07-20T00:40:02;2.45;;;1.45;;
44197;SDS011;30157;55.512;37.764;2023-07-20T00:42:30;1.52;;;1.27;;
44197;SDS011;30157;55.512;37.764;2023-07-20T00:44:56;2.20;;;1.30;;
44197;SDS011;30157;55.512;37.764;2023-07-20T00:47:22;2.40;;;1.50;;
44197;SDS011;30157;55.512;37.764;2023-07-20T00:49:48;3.55;;;1.45;;
44197;SDS011;30157;55.512;37.764;2023-07-20T00:52:15;2.80;;;1.42;;
44197;SDS011;30157;55.512;37.764;2023-07-20T00:54:42;2.47;;;1.60;;
44197;SDS011;30157;55.512;37.764;2023-07-20T00:57:09;2.50;;;1.50;;
44197;SDS011;30157;55.512;37.764;2023-07-20T00:59:35;3.63;;;1.50;;
44197;SDS011;30157;55.512;37.764;2023-07-20T01:02:01;2.22;;;1.50;;
44197;SDS011;30157;55.512;37.764;2023-07-20T01:04:28;3.15;;;1.42;;
44197;SDS011;30157;55.512;37.764;2023-07-20T01:06:58;2.72;;;1.40;;
44197;SDS011;30157;55.512;37.764;2023-07-20T01:12:38;2.58;;;1.52;;
44197;SDS011;30157;55.512;37.764;2023-07-20T01:15:07;5.03;;;1.73;;
44197;SDS011;30157;55.512;37.764;2023-07-20T01:17:34;3.28;;;1.60;;
44197;SDS011;30157;55.512;37.764;2023-07-20T01:20:00;5.00;;;1.42;;
44197;SDS011;30157;55.512;37.764;2023-07-20T01:33:09;5.20;;;1.60;;
44197;SDS011;30157;55.512;37.764;2023-07-20T01:35:39;4.75;;;1.50;;
44197;SDS011;30157;55.512;37.764;2023-07-20T01:38:09;8.80;;;2.40;;
44197;SDS011;30157;55.512;37.764;2023-07-20T01:40:37;3.03;;;1.50;;
44197;SDS011;30157;55.512;37.764;2023-07-20T01:43:05;6.43;;;1.90;;
44197;SDS011;30157;55.512;37.764;2023-07-20T01:45:30;4.35;;;1.90;;
44197;SDS011;30157;55.512;37.764;2023-07-20T01:47:56;1.90;;;1.30;;
44197;SDS011;30157;55.512;37.764;2023-07-20T01:50:22;3.40;;;1.45;;
44197;SDS011;30157;55.512;37.764;2023-07-20T01:52:48;3.10;;;1.85;;
44197;SDS011;30157;55.512;37.764;2023-07-20T01:55:14;2.47;;;1.50;;
44197;SDS011;30157;55.512;37.764;2023-07-20T01:57:40;2.78;;;1.40;;
44197;SDS011;30157;55.512;37.764;2023-07-20T02:00:06;1.75;;;1.40;;
44197;SDS011;30157;55.512;37.764;2023-07-20T02:02:41;3.47;;;1.55;;
44197;SDS011;30157;55.512;37.764;2023-07-20T02:05:09;2.88;;;1.40;;
44197;SDS011;30157;55.512;37.764;2023-07-20T02:07:34;4.13;;;1.70;;
44197;SDS011;30157;55.512;37.764;2023-07-20T02:10:00;2.40;;;1.50;;
44197;SDS011;30157;55.512;37.764;2023-07-20T02:12:26;3.08;;;1.52;;
44197;SDS011;30157;55.512;37.764;2023-07-20T02:14:51;3.22;;;1.35;;
44197;SDS011;30157;55.512;37.764;2023-07-20T02:17:18;4.60;;;1.50;;
44197;SDS011;30157;55.512;37.764;2023-07-20T02:19:44;3.58;;;1.48;;
44197;SDS011;30157;55.512;37.764;2023-07-20T02:22:10;5.15;;;1.42;;
44197;SDS011;30157;55.512;37.764;2023-07-20T02:24:36;2.92;;;1.60;;
44197;SDS011;30157;55.512;37.764;2023-07-20T02:27:02;3.17;;;1.60;;
44197;SDS011;30157;55.512;37.764;2023-07-20T02:29:27;2.70;;;1.65;;
44197;SDS011;30157;55.512;37.764;2023-07-20T02:31:53;4.85;;;1.70;;
44197;SDS011;30157;55.512;37.764;2023-07-20T02:34:19;5.18;;;1.75;;
44197;SDS011;30157;55.512;37.764;2023-07-20T02:36:45;5.43;;;1.88;;
44197;SDS011;30157;55.512;37.764;2023-07-20T02:39:11;3.28;;;1.60;;
44197;SDS011;30157;55.512;37.764;2023-07-20T02:41:37;2.50;;;1.80;;
44197;SDS011;30157;55.512;37.764;2023-07-20T02:44:03;5.15;;;2.00;;
44197;SDS011;30157;55.512;37.764;2023-07-20T02:46:28;3.22;;;1.90;;
44197;SDS011;30157;55.512;37.764;2023-07-20T02:48:55;3.05;;;1.70;;
44197;SDS011;30157;55.512;37.764;2023-07-20T02:51:21;4.18;;;1.70;;
44197;SDS011;30157;55.512;37.764;2023-07-20T02:53:47;2.38;;;1.75;;
44197;SDS011;30157;55.512;37.764;2023-07-20T02:56:12;4.80;;;1.98;;
44197;SDS011;30157;55.512;37.764;2023-07-20T02:58:41;4.35;;;1.70;;
44197;SDS011;30157;55.512;37.764;2023-07-20T03:01:11;2.40;;;1.60;;
44197;SDS011;30157;55.512;37.764;2023-07-20T03:03:37;2.92;;;1.60;;
44197;SDS011;30157;55.512;37.764;2023-07-20T03:06:04;4.60;;;1.73;;
44197;SDS011;30157;55.512;37.764;2023-07-20T03:08:30;6.03;;;1.80;;
44197;SDS011;30157;55.512;37.764;2023-07-20T03:10:56;4.38;;;2.03;;
44197;SDS011;30157;55.512;37.764;2023-07-20T03:13:23;2.08;;;1.55;;
44197;SDS011;30157;55.512;37.764;2023-07-20T03:15:49;2.92;;;1.40;;
44197;SDS011;30157;55.512;37.764;2023-07-20T03:18:15;2.72;;;1.38;;
44197;SDS011;30157;55.512;37.764;2023-07-20T03:20:41;2.85;;;1.38;;
44197;SDS011;30157;55.512;37.764;2023-07-20T03:23:07;2.00;;;1.40;;
44197;SDS011;30157;55.512;37.764;2023-07-20T03:25:33;3.72;;;1.52;;
44197;SDS011;30157;55.512;37.764;2023-07-20T03:27:59;3.97;;;1.30;;
44197;SDS011;30157;55.512;37.764;2023-07-20T03:30:25;2.50;;;1.38;;
44197;SDS011;30157;55.512;37.764;2023-07-20T03:32:51;1.90;;;1.40;;
44197;SDS011;30157;55.512;37.764;2023-07-20T03:35:17;2.20;;;1.15;;
44197;SDS011;30157;55.512;37.764;2023-07-20T03:37:44;2.13;;;1.10;;
44197;SDS011;30157;55.512;37.764;2023-07-20T03:40:10;2.58;;;1.10;;
44197;SDS011;30157;55.512;37.764;2023-07-20T03:42:36;2.50;;;1.10;;
44197;SDS011;30157;55.512;37.764;2023-07-20T03:45:02;5.68;;;1.75;;
44197;SDS011;30157;55.512;37.764;2023-07-20T03:47:30;2.67;;;1.08;;
44197;SDS011;30157;55.512;37.764;2023-07-20T03:49:56;2.17;;;1.00;;
44197;SDS011;30157;55.512;37.764;2023-07-20T03:52:22;2.67;;;0.90;;
44197;SDS011;30157;55.512;37.764;2023-07-20T03:54:49;3.45;;;1.05;;
44197;SDS011;30157;55.512;37.764;2023-07-20T03:57:16;2.15;;;0.90;;
44197;SDS011;30157;55.512;37.764;2023-07-20T03:59:44;2.75;;;0.90;;
44197;SDS011;30157;55.512;37.764;2023-07-20T04:02:11;2.38;;;1.00;;
44197;SDS011;30157;55.512;37.764;2023-07-20T04:04:37;1.42;;;0.82;;
44197;SDS011;30157;55.512;37.764;2023-07-20T04:07:03;1.92;;;1.10;;
44197;SDS011;30157;55.512;37.764;2023-07-20T04:09:29;4.68;;;1.20;;
44197;SDS011;30157;55.512;37.764;2023-07-20T04:11:56;2.30;;;1.00;;
44197;SDS011;30157;55.512;37.764;2023-07-20T04:14:22;4.32;;;0.90;;
44197;SDS011;30157;55.512;37.764;2023-07-20T04:16:48;1.95;;;1.00;;
44197;SDS011;30157;55.512;37.764;2023-07-20T04:19:13;3.88;;;1.00;;
44197;SDS011;30157;55.512;37.764;2023-07-20T04:21:40;3.55;;;1.00;;
44197;SDS011;30157;55.512;37.764;2023-07-20T04:24:06;3.10;;;1.20;;
44197;SDS011;30157;55.512;37.764;2023-07-20T04:26:32;2.38;;;1.20;;
44197;SDS011;30157;55.512;37.764;2023-07-20T04:28:58;2.42;;;0.90;;
44197;SDS011;30157;55.512;37.764;2023-07-20T04:31:38;1.83;;;1.00;;
44197;SDS011;30157;55.512;37.764;2023-07-20T04:34:03;1.92;;;1.00;;
44197;SDS011;30157;55.512;37.764;2023-07-20T04:36:32;5.20;;;0.98;;
44197;SDS011;30157;55.512;37.764;2023-07-20T04:38:57;2.92;;;0.80;;
44197;SDS011;30157;55.512;37.764;2023-07-20T04:41:23;1.02;;;0.80;;
44197;SDS011;30157;55.512;37.764;2023-07-20T04:43:53;3.30;;;1.08;;
44197;SDS011;30157;55.512;37.764;2023-07-20T04:46:25;2.97;;;1.02;;
44197;SDS011;30157;55.512;37.764;2023-07-20T04:48:51;2.03;;;0.93;;
44197;SDS011;30157;55.512;37.764;2023-07-20T04:51:17;2.35;;;0.80;;
44197;SDS011;30157;55.512;37.764;2023-07-20T04:53:47;2.15;;;1.00;;
44197;SDS011;30157;55.512;37.764;2023-07-20T04:56:13;3.08;;;0.90;;
44197;SDS011;30157;55.512;37.764;2023-07-20T04:58:39;2.38;;;0.77;;
44197;SDS011;30157;55.512;37.764;2023-07-20T05:01:05;2.28;;;0.77;;
44197;SDS011;30157;55.512;37.764;2023-07-20T05:03:32;1.23;;;0.75;;
44197;SDS011;30157;55.512;37.764;2023-07-20T05:05:58;4.90;;;1.35;;
44197;SDS011;30157;55.512;37.764;2023-07-20T05:08:24;1.45;;;0.82;;
44197;SDS011;30157;55.512;37.764;2023-07-20T05:10:50;3.17;;;0.80;;
44197;SDS011;30157;55.512;37.764;2023-07-20T05:13:16;1.80;;;0.85;;
44197;SDS011;30157;55.512;37.764;2023-07-20T05:15:42;2.78;;;0.80;;
44197;SDS011;30157;55.512;37.764;2023-07-20T05:18:11;2.90;;;0.90;;
44197;SDS011;30157;55.512;37.764;2023-07-20T05:20:38;2.08;;;0.90;;
44197;SDS011;30157;55.512;37.764;2023-07-20T05:23:04;3.83;;;0.88;;
44197;SDS011;30157;55.512;37.764;2023-07-20T05:25:29;2.25;;;0.88;;
44197;SDS011;30157;55.512;37.764;2023-07-20T05:27:55;2.25;;;1.13;;
44197;SDS011;30157;55.512;37.764;2023-07-20T05:30:21;1.00;;;0.80;;
44197;SDS011;30157;55.512;37.764;2023-07-20T05:32:47;2.47;;;1.00;;
44197;SDS011;30157;55.512;37.764;2023-07-20T05:35:17;1.00;;;0.70;;
44197;SDS011;30157;55.512;37.764;2023-07-20T05:37:44;1.10;;;0.70;;
44197;SDS011;30157;55.512;37.764;2023-07-20T05:40:10;2.90;;;1.00;;
44197;SDS011;30157;55.512;37.764;2023-07-20T05:42:38;1.95;;;0.90;;
44197;SDS011;30157;55.512;37.764;2023-07-20T05:45:04;3.22;;;0.95;;
44197;SDS011;30157;55.512;37.764;2023-07-20T05:47:30;3.05;;;1.00;;
44197;SDS011;30157;55.512;37.764;2023-07-20T05:49:57;1.70;;;0.90;;
44197;SDS011;30157;55.512;37.764;2023-07-20T05:52:23;2.88;;;0.90;;
44197;SDS011;30157;55.512;37.764;2023-07-20T05:54:48;2.10;;;0.88;;
44197;SDS011;30157;55.512;37.764;2023-07-20T05:57:14;0.88;;;0.70;;
44197;SDS011;30157;55.512;37.764;2023-07-20T05:59:40;3.58;;;0.95;;
44197;SDS011;30157;55.512;37.764;2023-07-20T06:02:10;2.50;;;0.80;;
44197;SDS011;30157;55.512;37.764;2023-07-20T06:04:36;2.88;;;0.82;;
44197;SDS011;30157;55.512;37.764;2023-07-20T06:07:02;4.18;;;1.10;;
44197;SDS011;30157;55.512;37.764;2023-07-20T06:09:27;2.78;;;1.23;;
44197;SDS011;30157;55.512;37.764;2023-07-20T06:11:54;4.60;;;0.80;;
44197;SDS011;30157;55.512;37.764;2023-07-20T06:14:20;2.17;;;0.73;;
44197;SDS011;30157;55.512;37.764;2023-07-20T06:16:46;4.40;;;1.02;;
44197;SDS011;30157;55.512;37.764;2023-07-20T06:19:11;2.72;;;0.90;;
44197;SDS011;30157;55.512;37.764;2023-07-20T06:21:38;1.50;;;0.80;;
44197;SDS011;30157;55.512;37.764;2023-07-20T06:24:04;2.15;;;0.70;;
44197;SDS011;30157;55.512;37.764;2023-07-20T06:26:30;1.80;;;0.80;;
44197;SDS011;30157;55.512;37.764;2023-07-20T06:28:56;1.55;;;0.73;;
44197;SDS011;30157;55.512;37.764;2023-07-20T06:31:22;1.38;;;0.70;;
44197;SDS011;30157;55.512;37.764;2023-07-20T06:33:47;3.10;;;0.80;;
44197;SDS011;30157;55.512;37.764;2023-07-20T06:36:15;2.22;;;0.88;;
44197;SDS011;30157;55.512;37.764;2023-07-20T06:38:43;2.03;;;0.70;;
44197;SDS011;30157;55.512;37.764;2023-07-20T06:41:08;3.53;;;1.05;;
44197;SDS011;30157;55.512;37.764;2023-07-20T06:43:34;2.08;;;0.95;;
44197;SDS011;30157;55.512;37.764;2023-07-20T06:46:00;2.22;;;0.80;;
44197;SDS011;30157;55.512;37.764;2023-07-20T06:48:26;3.15;;;0.90;;
44197;SDS011;30157;55.512;37.764;2023-07-20T06:50:52;1.75;;;0.80;;
44197;SDS011;30157;55.512;37.764;2023-07-20T06:53:19;2.75;;;0.95;;
44197;SDS011;30157;55.512;37.764;2023-07-20T06:55:44;1.63;;;0.80;;
44197;SDS011;30157;55.512;37.764;2023-07-20T06:58:10;5.25;;;1.30;;
44197;SDS011;30157;55.512;37.764;2023-07-20T07:00:37;1.85;;;0.90;;
44197;SDS011;30157;55.512;37.764;2023-07-20T07:03:02;3.55;;;1.02;;
44197;SDS011;30157;55.512;37.764;2023-07-20T07:05:28;2.65;;;0.98;;
44197;SDS011;30157;55.512;37.764;2023-07-20T07:07:54;3.20;;;0.98;;
44197;SDS011;30157;55.512;37.764;2023-07-20T07:10:19;2.58;;;0.75;;
44197;SDS011;30157;55.512;37.764;2023-07-20T07:12:45;10.52;;;1.90;;
44197;SDS011;30157;55.512;37.764;2023-07-20T07:15:11;9.05;;;1.35;;
44197;SDS011;30157;55.512;37.764;2023-07-20T07:17:37;2.63;;;1.10;;
44197;SDS011;30157;55.512;37.764;2023-07-20T07:20:03;7.10;;;1.65;;
44197;SDS011;30157;55.512;37.764;2023-07-20T07:22:30;3.60;;;1.00;;
44197;SDS011;30157;55.512;37.764;2023-07-20T07:24:56;2.30;;;0.88;;
44197;SDS011;30157;55.512;37.764;2023-07-20T07:27:22;1.70;;;0.80;;
44197;SDS011;30157;55.512;37.764;2023-07-20T07:29:47;1.48;;;0.80;;
44197;SDS011;30157;55.512;37.764;2023-07-20T07:32:15;3.15;;;1.02;;
44197;SDS011;30157;55.512;37.764;2023-07-20T07:34:41;5.13;;;1.00;;
44197;SDS011;30157;55.512;37.764;2023-07-20T07:37:06;2.00;;;0.85;;
44197;SDS011;30157;55.512;37.764;2023-07-20T07:39:32;4.43;;;0.85;;
44197;SDS011;30157;55.512;37.764;2023-07-20T07:41:58;2.95;;;1.00;;
44197;SDS011;30157;55.512;37.764;2023-07-20T07:44:24;2.28;;;0.80;;
44197;SDS011;30157;55.512;37.764;2023-07-20T07:46:51;2.33;;;1.00;;
44197;SDS011;30157;55.512;37.764;2023-07-20T07:49:17;3.22;;;1.10;;
44197;SDS011;30157;55.512;37.764;2023-07-20T07:51:44;3.60;;;0.93;;
44197;SDS011;30157;55.512;37.764;2023-07-20T07:54:10;5.32;;;1.10;;
44197;SDS011;30157;55.512;37.764;2023-07-20T07:56:36;5.18;;;1.05;;
44197;SDS011;30157;55.512;37.764;2023-07-20T07:59:02;2.17;;;0.93;;
44197;SDS011;30157;55.512;37.764;2023-07-20T08:01:28;2.20;;;0.80;;
44197;SDS011;30157;55.512;37.764;2023-07-20T08:03:54;4.00;;;0.80;;
44197;SDS011;30157;55.512;37.764;2023-07-20T08:06:22;3.05;;;0.80;;
44197;SDS011;30157;55.512;37.764;2023-07-20T08:08:49;1.52;;;0.82;;
44197;SDS011;30157;55.512;37.764;2023-07-20T08:11:15;2.88;;;0.95;;
44197;SDS011;30157;55.512;37.764;2023-07-20T08:13:41;3.30;;;1.10;;
44197;SDS011;30157;55.512;37.764;2023-07-20T08:16:07;3.20;;;1.15;;
44197;SDS011;30157;55.512;37.764;2023-07-20T08:18:33;4.28;;;1.30;;
44197;SDS011;30157;55.512;37.764;2023-07-20T08:20:58;4.72;;;1.23;;
44197;SDS011;30157;55.512;37.764;2023-07-20T08:23:24;4.13;;;1.00;;
44197;SDS011;30157;55.512;37.764;2023-07-20T08:25:50;4.50;;;1.20;;
44197;SDS011;30157;55.512;37.764;2023-07-20T08:28:16;1.98;;;1.05;;
44197;SDS011;30157;55.512;37.764;2023-07-20T08:30:42;4.00;;;1.42;;
44197;SDS011;30157;55.512;37.764;2023-07-20T08:33:09;2.78;;;1.05;;
44197;SDS011;30157;55.512;37.764;2023-07-20T08:35:36;1.40;;;0.80;;
44197;SDS011;30157;55.512;37.764;2023-07-20T08:38:02;2.28;;;0.90;;
44197;SDS011;30157;55.512;37.764;2023-07-20T08:40:33;3.25;;;1.10;;
44197;SDS011;30157;55.512;37.764;2023-07-20T08:43:04;2.30;;;0.85;;
44197;SDS011;30157;55.512;37.764;2023-07-20T08:45:30;2.67;;;1.13;;
44197;SDS011;30157;55.512;37.764;2023-07-20T08:47:59;1.90;;;0.90;;
44197;SDS011;30157;55.512;37.764;2023-07-20T08:50:27;5.32;;;1.15;;
44197;SDS011;30157;55.512;37.764;2023-07-20T08:52:56;2.88;;;1.30;;
44197;SDS011;30157;55.512;37.764;2023-07-20T08:55:24;1.73;;;0.85;;
44197;SDS011;30157;55.512;37.764;2023-07-20T08:57:54;4.88;;;1.08;;
44197;SDS011;30157;55.512;37.764;2023-07-20T09:00:21;3.67;;;1.20;;
44197;SDS011;30157;55.512;37.764;2023-07-20T09:02:52;2.97;;;1.00;;
44197;SDS011;30157;55.512;37.764;2023-07-20T09:05:19;1.30;;;0.90;;
44197;SDS011;30157;55.512;37.764;2023-07-20T09:07:46;5.90;;;1.23;;
44197;SDS011;30157;55.512;37.764;2023-07-20T09:10:12;2.70;;;1.00;;
44197;SDS011;30157;55.512;37.764;2023-07-20T09:12:38;4.57;;;1.50;;
44197;SDS011;30157;55.512;37.764;2023-07-20T09:15:05;2.72;;;1.20;;
44197;SDS011;30157;55.512;37.764;2023-07-20T09:17:33;3.83;;;1.38;;
44197;SDS011;30157;55.512;37.764;2023-07-20T09:20:05;7.97;;;1.40;;
44197;SDS011;30157;55.512;37.764;2023-07-20T09:22:38;5.72;;;1.20;;
44197;SDS011;30157;55.512;37.764;2023-07-20T09:25:09;4.13;;;1.40;;
44197;SDS011;30157;55.512;37.764;2023-07-20T09:27:44;2.60;;;1.00;;
44197;SDS011;30157;55.512;37.764;2023-07-20T09:30:14;3.42;;;1.00;;
44197;SDS011;30157;55.512;37.764;2023-07-20T09:32:42;3.25;;;1.10;;
44197;SDS011;30157;55.512;37.764;2023-07-20T09:37:41;6.30;;;0.95;;
44197;SDS011;30157;55.512;37.764;2023-07-20T09:40:23;5.35;;;1.27;;
44197;SDS011;30157;55.512;37.764;2023-07-20T09:42:51;3.78;;;1.42;;
44197;SDS011;30157;55.512;37.764;2023-07-20T09:45:19;3.63;;;1.38;;
44197;SDS011;30157;55.512;37.764;2023-07-20T09:47:45;3.53;;;1.20;;
44197;SDS011;30157;55.512;37.764;2023-07-20T09:50:10;2.78;;;1.25;;
44197;SDS011;30157;55.512;37.764;2023-07-20T09:52:40;3.17;;;1.20;;
44197;SDS011;30157;55.512;37.764;2023-07-20T09:55:09;2.08;;;1.20;;
44197;SDS011;30157;55.512;37.764;2023-07-20T09:57:37;3.65;;;1.02;;
44197;SDS011;30157;55.512;37.764;2023-07-20T10:00:03;2.63;;;1.00;;
44197;SDS011;30157;55.512;37.764;2023-07-20T10:02:41;3.85;;;1.27;;
44197;SDS011;30157;55.512;37.764;2023-07-20T10:05:09;3.65;;;1.17;;
44197;SDS011;30157;55.512;37.764;2023-07-20T10:07:40;4.30;;;1.20;;
44197;SDS011;30157;55.512;37.764;2023-07-20T10:10:10;3.10;;;1.25;;
44197;SDS011;30157;55.512;37.764;2023-07-20T10:12:36;5.65;;;1.17;;
44197;SDS011;30157;55.512;37.764;2023-07-20T10:17:33;4.25;;;1.30;;
44197;SDS011;30157;55.512;37.764;2023-07-20T10:20:01;3.60;;;1.35;;
44197;SDS011;30157;55.512;37.764;2023-07-20T10:22:30;3.15;;;1.38;;
44197;SDS011;30157;55.512;37.764;2023-07-20T10:25:00;2.20;;;1.33;;
44197;SDS011;30157;55.512;37.764;2023-07-20T10:27:29;4.75;;;1.33;;
44197;SDS011;30157;55.512;37.764;2023-07-20T10:29:55;4.63;;;1.52;;
44197;SDS011;30157;55.512;37.764;2023-07-20T10:32:24;2.60;;;1.25;;
44197;SDS011;30157;55.512;37.764;2023-07-20T10:34:55;5.38;;;1.30;;
44197;SDS011;30157;55.512;37.764;2023-07-20T10:37:56;2.50;;;1.23;;
44197;SDS011;30157;55.512;37.764;2023-07-20T10:40:24;1.80;;;1.17;;
44197;SDS011;30157;55.512;37.764;2023-07-20T10:42:50;10.32;;;1.50;;
44197;SDS011;30157;55.512;37.764;2023-07-20T10:45:19;2.25;;;1.13;;
44197;SDS011;30157;55.512;37.764;2023-07-20T10:47:45;2.75;;;1.50;;
44197;SDS011;30157;55.512;37.764;2023-07-20T10:50:11;3.50;;;1.30;;
44197;SDS011;30157;55.512;37.764;2023-07-20T10:52:38;5.50;;;1.38;;
44197;SDS011;30157;55.512;37.764;2023-07-20T10:55:15;2.85;;;1.45;;
44197;SDS011;30157;55.512;37.764;2023-07-20T10:57:41;3.72;;;1.50;;
44197;SDS011;30157;55.512;37.764;2023-07-20T11:00:08;4.20;;;1.70;;
44197;SDS011;30157;55.512;37.764;2023-07-20T11:02:46;5.47;;;1.55;;
44197;SDS011;30157;55.512;37.764;2023-07-20T11:05:34;7.53;;;2.00;;
44197;SDS011;30157;55.512;37.764;2023-07-20T11:08:02;3.75;;;1.60;;
44197;SDS011;30157;55.512;37.764;2023-07-20T11:10:29;4.30;;;1.45;;
44197;SDS011;30157;55.512;37.764;2023-07-20T11:16:02;3.78;;;1.67;;
44197;SDS011;30157;55.512;37.764;2023-07-20T11:18:30;7.40;;;1.50;;
44197;SDS011;30157;55.512;37.764;2023-07-20T11:20:59;2.53;;;1.40;;
44197;SDS011;30157;55.512;37.764;2023-07-20T11:23:25;3.03;;;1.40;;
44197;SDS011;30157;55.512;37.764;2023-07-20T11:25:51;2.60;;;1.38;;
44197;SDS011;30157;55.512;37.764;2023-07-20T11:28:17;3.40;;;1.30;;
44197;SDS011;30157;55.512;37.764;2023-07-20T11:30:43;2.95;;;1.58;;
44197;SDS011;30157;55.512;37.764;2023-07-20T11:33:09;7.07;;;1.80;;
44197;SDS011;30157;55.512;37.764;2023-07-20T11:35:35;5.28;;;1.80;;
44197;SDS011;30157;55.512;37.764;2023-07-20T11:38:07;2.15;;;1.50;;
44197;SDS011;30157;55.512;37.764;2023-07-20T11:40:33;2.95;;;1.90;;
44197;SDS011;30157;55.512;37.764;2023-07-20T11:42:59;4.68;;;1.85;;
44197;SDS011;30157;55.512;37.764;2023-07-20T11:45:25;4.78;;;1.63;;
44197;SDS011;30157;55.512;37.764;2023-07-20T11:47:51;5.43;;;1.73;;
44197;SDS011;30157;55.512;37.764;2023-07-20T11:50:16;1.98;;;1.10;;
44197;SDS011;30157;55.512;37.764;2023-07-20T11:52:42;2.67;;;1.15;;
44197;SDS011;30157;55.512;37.764;2023-07-20T11:55:08;3.03;;;1.23;;
44197;SDS011;30157;55.512;37.764;2023-07-20T11:57:35;2.63;;;1.40;;
44197;SDS011;30157;55.512;37.764;2023-07-20T12:00:02;1.75;;;1.10;;
44197;SDS011;30157;55.512;37.764;2023-07-20T12:02:36;4.13;;;1.45;;
44197;SDS011;30157;55.512;37.764;2023-07-20T12:05:04;1.67;;;1.15;;
44197;SDS011;30157;55.512;37.764;2023-07-20T12:07:32;2.65;;;1.38;;
44197;SDS011;30157;55.512;37.764;2023-07-20T12:10:11;2.30;;;1.30;;
44197;SDS011;30157;55.512;37.764;2023-07-20T12:12:38;4.10;;;1.40;;
44197;SDS011;30157;55.512;37.764;2023-07-20T12:15:20;3.80;;;1.70;;
44197;SDS011;30157;55.512;37.764;2023-07-20T12:17:55;9.00;;;1.83;;
44197;SDS011;30157;55.512;37.764;2023-07-20T12:22:52;2.50;;;1.38;;
44197;SDS011;30157;55.512;37.764;2023-07-20T12:25:22;3.97;;;1.55;;
44197;SDS011;30157;55.512;37.764;2023-07-20T12:27:48;2.00;;;1.40;;
44197;SDS011;30157;55.512;37.764;2023-07-20T12:30:14;3.03;;;1.50;;
44197;SDS011;30157;55.512;37.764;2023-07-20T12:32:40;3.78;;;1.38;;
44197;SDS011;30157;55.512;37.764;2023-07-20T12:35:06;2.55;;;1.50;;
44197;SDS011;30157;55.512;37.764;2023-07-20T12:37:32;2.67;;;1.30;;
44197;SDS011;30157;55.512;37.764;2023-07-20T12:39:58;2.10;;;1.30;;
44197;SDS011;30157;55.512;37.764;2023-07-20T12:42:23;2.65;;;1.25;;
44197;SDS011;30157;55.512;37.764;2023-07-20T12:44:49;3.58;;;1.50;;
44197;SDS011;30157;55.512;37.764;2023-07-20T12:47:16;2.92;;;1.42;;
44197;SDS011;30157;55.512;37.764;2023-07-20T12:49:43;4.25;;;1.20;;
44197;SDS011;30157;55.512;37.764;2023-07-20T12:52:10;1.98;;;1.30;;
44197;SDS011;30157;55.512;37.764;2023-07-20T12:54:36;3.08;;;1.40;;
44197;SDS011;30157;55.512;37.764;2023-07-20T12:57:02;3.40;;;1.30;;
44197;SDS011;30157;55.512;37.764;2023-07-20T12:59:29;2.17;;;1.40;;
44197;SDS011;30157;55.512;37.764;2023-07-20T13:01:54;6.35;;;1.80;;
44197;SDS011;30157;55.512;37.764;2023-07-20T13:04:20;3.38;;;1.70;;
44197;SDS011;30157;55.512;37.764;2023-07-20T13:06:46;3.35;;;1.80;;
44197;SDS011;30157;55.512;37.764;2023-07-20T13:09:12;3.72;;;1.55;;
44197;SDS011;30157;55.512;37.764;2023-07-20T13:11:37;3.67;;;1.58;;
44197;SDS011;30157;55.512;37.764;2023-07-20T13:14:03;2.33;;;1.50;;
44197;SDS011;30157;55.512;37.764;2023-07-20T13:16:29;5.15;;;1.80;;
44197;SDS011;30157;55.512;37.764;2023-07-20T13:18:55;2.17;;;1.30;;
44197;SDS011;30157;55.512;37.764;2023-07-20T13:21:21;1.65;;;1.30;;
44197;SDS011;30157;55.512;37.764;2023-07-20T13:23:48;2.83;;;1.40;;
44197;SDS011;30157;55.512;37.764;2023-07-20T13:26:15;6.45;;;1.92;;
44197;SDS011;30157;55.512;37.764;2023-07-20T13:28:41;1.98;;;1.30;;
44197;SDS011;30157;55.512;37.764;2023-07-20T13:31:07;5.90;;;1.80;;
44197;SDS011;30157;55.512;37.764;2023-07-20T13:33:36;2.28;;;1.50;;
44197;SDS011;30157;55.512;37.764;2023-07-20T13:36:03;5.43;;;3.60;;
44197;SDS011;30157;55.512;37.764;2023-07-20T13:38:31;5.32;;;2.70;;
44197;SDS011;30157;55.512;37.764;2023-07-20T13:40:57;2.58;;;1.48;;
44197;SDS011;30157;55.512;37.764;2023-07-20T13:43:23;2.92;;;1.70;;
44197;SDS011;30157;55.512;37.764;2023-07-20T13:45:48;3.50;;;1.58;;
44197;SDS011;30157;55.512;37.764;2023-07-20T13:48:14;3.13;;;1.30;;
44197;SDS011;30157;55.512;37.764;2023-07-20T13:50:40;2.75;;;1.48;;
44197;SDS011;30157;55.512;37.764;2023-07-20T13:53:05;3.00;;;1.10;;
44197;SDS011;30157;55.512;37.764;2023-07-20T13:55:31;2.33;;;1.20;;
44197;SDS011;30157;55.512;37.764;2023-07-20T13:57:59;2.88;;;1.60;;
44197;SDS011;30157;55.512;37.764;2023-07-20T14:00:24;2.67;;;1.42;;
44197;SDS011;30157;55.512;37.764;2023-07-20T14:05:18;1.75;;;1.10;;
44197;SDS011;30157;55.512;37.764;2023-07-20T14:07:44;3.10;;;1.40;;
44197;SDS011;30157;55.512;37.764;2023-07-20T14:10:10;3.80;;;1.40;;
44197;SDS011;30157;55.512;37.764;2023-07-20T14:12:36;3.67;;;1.55;;
44197;SDS011;30157;55.512;37.764;2023-07-20T14:15:02;3.38;;;1.80;;
44197;SDS011;30157;55.512;37.764;2023-07-20T14:17:30;4.75;;;1.63;;
44197;SDS011;30157;55.512;37.764;2023-07-20T14:19:56;2.70;;;1.38;;
44197;SDS011;30157;55.512;37.764;2023-07-20T14:22:22;3.47;;;1.35;;
44197;SDS011;30157;55.512;37.764;2023-07-20T14:24:48;3.65;;;1.35;;
44197;SDS011;30157;55.512;37.764;2023-07-20T14:27:14;3.72;;;1.58;;
44197;SDS011;30157;55.512;37.764;2023-07-20T14:29:39;4.85;;;1.52;;
44197;SDS011;30157;55.512;37.764;2023-07-20T14:32:05;3.13;;;1.50;;
44197;SDS011;30157;55.512;37.764;2023-07-20T14:34:33;2.92;;;1.40;;
44197;SDS011;30157;55.512;37.764;2023-07-20T14:36:59;3.58;;;1.40;;
44197;SDS011;30157;55.512;37.764;2023-07-20T14:39:25;4.68;;;1.90;;
44197;SDS011;30157;55.512;37.764;2023-07-20T14:41:51;2.30;;;1.48;;
44197;SDS011;30157;55.512;37.764;2023-07-20T14:44:17;4.32;;;1.40;;
44197;SDS011;30157;55.512;37.764;2023-07-20T14:46:43;6.72;;;1.75;;
44197;SDS011;30157;55.512;37.764;2023-07-20T14:49:08;4.88;;;1.63;;
44197;SDS011;30157;55.512;37.764;2023-07-20T14:51:36;2.70;;;1.35;;
44197;SDS011;30157;55.512;37.764;2023-07-20T14:54:08;2.88;;;1.38;;
44197;SDS011;30157;55.512;37.764;2023-07-20T14:56:35;3.45;;;1.40;;
44197;SDS011;30157;55.512;37.764;2023-07-20T14:59:03;3.28;;;1.50;;